Aviation Digital Data Service (ADDS)

Output produced by METARs form (1854 UTC 25 March 2019)
found at http://www.aviationweather.gov/metar/data/
 
METAR text: OKBK 251800Z 14006KT 4000 -RA FEW030CB SCT040 OVC080 20/20 Q1005 RETSRA NOSIG
Conditions at: OKBK (KUWAIT INTL (MIL, KW) observed 1800 UTC 25 March 2019
Temperature: 20.0°C (68°F)
Dewpoint: 20.0°C (68°F) [RH = 100%]
Pressure (altimeter): 29.68 inches Hg (1005.0 mb)
Winds: from the SE (140 degrees) at 7 MPH (6 knots; 3.1 m/s)
Visibility: 2.49 miles (4.01 km)
Ceiling: 8000 feet AGL
Clouds: few clouds at 3000 feet AGL
scattered clouds at 4000 feet AGL
overcast cloud deck at 8000 feet AGL
Weather: -RA  (light rain)

METAR text: OKBK 251700Z 12003KT 4000 -TSRA SCT030CB SCT040 OVC080 20/20 Q1004 RETSRA NOSIG
Conditions at: OKBK (KUWAIT INTL (MIL, KW) observed 1700 UTC 25 March 2019
Temperature: 20.0°C (68°F)
Dewpoint: 20.0°C (68°F) [RH = 100%]
Pressure (altimeter): 29.65 inches Hg (1004.0 mb)
Winds: from the ESE (120 degrees) at 3 MPH (3 knots; 1.5 m/s)
Visibility: 2.49 miles (4.01 km)
Ceiling: 8000 feet AGL
Clouds: scattered clouds at 3000 feet AGL
scattered clouds at 4000 feet AGL
overcast cloud deck at 8000 feet AGL
Weather: -TSRA  (light rain associated with thunderstorm(s))

METAR text: OKBK 251600Z 11003KT 4000 -TSRA SCT030CB SCT040 OVC080 20/20 Q1004 RETSRA NOSIG
Conditions at: OKBK (KUWAIT INTL (MIL, KW) observed 1600 UTC 25 March 2019
Temperature: 20.0°C (68°F)
Dewpoint: 20.0°C (68°F) [RH = 100%]
Pressure (altimeter): 29.65 inches Hg (1004.0 mb)
Winds: from the ESE (110 degrees) at 3 MPH (3 knots; 1.5 m/s)
Visibility: 2.49 miles (4.01 km)
Ceiling: 8000 feet AGL
Clouds: scattered clouds at 3000 feet AGL
scattered clouds at 4000 feet AGL
overcast cloud deck at 8000 feet AGL
Weather: -TSRA  (light rain associated with thunderstorm(s))

METAR text: OKBK 251500Z 13007KT 3500 -TSRA SCT030CB SCT040 OVC080 20/20 Q1004 RETSRA NOSIG
Conditions at: OKBK (KUWAIT INTL (MIL, KW) observed 1500 UTC 25 March 2019
Temperature: 20.0°C (68°F)
Dewpoint: 20.0°C (68°F) [RH = 100%]
Pressure (altimeter): 29.65 inches Hg (1004.0 mb)
Winds: from the SE (130 degrees) at 8 MPH (7 knots; 3.6 m/s)
Visibility: 2.17 miles (3.49 km)
Ceiling: 8000 feet AGL
Clouds: scattered clouds at 3000 feet AGL
scattered clouds at 4000 feet AGL
overcast cloud deck at 8000 feet AGL
Weather: -TSRA  (light rain associated with thunderstorm(s))

METAR text: OKBK 251400Z 11004KT 3500 -TSRA SCT030CB SCT040 OVC080 21/20 Q1003 RETSRA NOSIG
Conditions at: OKBK (KUWAIT INTL (MIL, KW) observed 1400 UTC 25 March 2019
Temperature: 21.0°C (70°F)
Dewpoint: 20.0°C (68°F) [RH = 94%]
Pressure (altimeter): 29.62 inches Hg (1003.0 mb)
Winds: from the ESE (110 degrees) at 5 MPH (4 knots; 2.1 m/s)
Visibility: 2.17 miles (3.49 km)
Ceiling: 8000 feet AGL
Clouds: scattered clouds at 3000 feet AGL
scattered clouds at 4000 feet AGL
overcast cloud deck at 8000 feet AGL
Weather: -TSRA  (light rain associated with thunderstorm(s))

METAR text: OKBK 251300Z 12003KT 3000 -TSRA SCT030CB SCT040 OVC080 21/18 Q1005 RETSRA NOSIG
Conditions at: OKBK (KUWAIT INTL (MIL, KW) observed 1300 UTC 25 March 2019
Temperature: 21.0°C (70°F)
Dewpoint: 18.0°C (64°F) [RH = 83%]
Pressure (altimeter): 29.68 inches Hg (1005.0 mb)
Winds: from the ESE (120 degrees) at 3 MPH (3 knots; 1.5 m/s)
Visibility: 1.86 miles (2.99 km)
Ceiling: 8000 feet AGL
Clouds: scattered clouds at 3000 feet AGL
scattered clouds at 4000 feet AGL
overcast cloud deck at 8000 feet AGL
Weather: -TSRA  (light rain associated with thunderstorm(s))

METAR text: OKBK 251200Z 35006KT 3000 -TSRA SCT030CB SCT040 OVC080 20/19 Q1004 RETSRA NOSIG
Conditions at: OKBK (KUWAIT INTL (MIL, KW) observed 1200 UTC 25 March 2019
Temperature: 20.0°C (68°F)
Dewpoint: 19.0°C (66°F) [RH = 94%]
Pressure (altimeter): 29.65 inches Hg (1004.0 mb)
Winds: from the N (350 degrees) at 7 MPH (6 knots; 3.1 m/s)
Visibility: 1.86 miles (2.99 km)
Ceiling: 8000 feet AGL
Clouds: scattered clouds at 3000 feet AGL
scattered clouds at 4000 feet AGL
overcast cloud deck at 8000 feet AGL
Weather: -TSRA  (light rain associated with thunderstorm(s))

METAR text: OKBK 251100Z 01003KT 3000 -TSRA SCT030CB SCT040 OVC080 21/19 Q1004 RETSRA NOSIG
Conditions at: OKBK (KUWAIT INTL (MIL, KW) observed 1100 UTC 25 March 2019
Temperature: 21.0°C (70°F)
Dewpoint: 19.0°C (66°F) [RH = 88%]
Pressure (altimeter): 29.65 inches Hg (1004.0 mb)
Winds: from the N (10 degrees) at 3 MPH (3 knots; 1.5 m/s)
Visibility: 1.86 miles (2.99 km)
Ceiling: 8000 feet AGL
Clouds: scattered clouds at 3000 feet AGL
scattered clouds at 4000 feet AGL
overcast cloud deck at 8000 feet AGL
Weather: -TSRA  (light rain associated with thunderstorm(s))

METAR text: OKBK 251000Z 24003KT 2000 -TSRA SCT030CB SCT040 OVC080 22/20 Q1004 RESHRA NOSIG
Conditions at: OKBK (KUWAIT INTL (MIL, KW) observed 1000 UTC 25 March 2019
Temperature: 22.0°C (72°F)
Dewpoint: 20.0°C (68°F) [RH = 88%]
Pressure (altimeter): 29.65 inches Hg (1004.0 mb)
Winds: from the WSW (240 degrees) at 3 MPH (3 knots; 1.5 m/s)
Visibility: 1.24 miles (2.00 km)
Ceiling: 8000 feet AGL
Clouds: scattered clouds at 3000 feet AGL
scattered clouds at 4000 feet AGL
overcast cloud deck at 8000 feet AGL
Weather: -TSRA  (light rain associated with thunderstorm(s))

METAR text: OKBK 250900Z 21005KT 2000 -TSRA SCT030CB SCT040 OVC080 22/20 Q1004 RETSRA NOSIG
Conditions at: OKBK (KUWAIT INTL (MIL, KW) observed 0900 UTC 25 March 2019
Temperature: 22.0°C (72°F)
Dewpoint: 20.0°C (68°F) [RH = 88%]
Pressure (altimeter): 29.65 inches Hg (1004.0 mb)
Winds: from the SSW (210 degrees) at 6 MPH (5 knots; 2.6 m/s)
Visibility: 1.24 miles (2.00 km)
Ceiling: 8000 feet AGL
Clouds: scattered clouds at 3000 feet AGL
scattered clouds at 4000 feet AGL
overcast cloud deck at 8000 feet AGL
Weather: -TSRA  (light rain associated with thunderstorm(s))

METAR text: OKBK 250800Z 20010KT 2000 -TSRA SCT030CB SCT040 OVC080 23/19 Q1002 RETSRA NOSIG
Conditions at: OKBK (KUWAIT INTL (MIL, KW) observed 0800 UTC 25 March 2019
Temperature: 23.0°C (73°F)
Dewpoint: 19.0°C (66°F) [RH = 78%]
Pressure (altimeter): 29.59 inches Hg (1002.0 mb)
Winds: from the SSW (200 degrees) at 12 MPH (10 knots; 5.1 m/s)
Visibility: 1.24 miles (2.00 km)
Ceiling: 8000 feet AGL
Clouds: scattered clouds at 3000 feet AGL
scattered clouds at 4000 feet AGL
overcast cloud deck at 8000 feet AGL
Weather: -TSRA  (light rain associated with thunderstorm(s))

METAR text: OKBK 250700Z 18012KT 2000 TSRA SCT030CB SCT040 OVC080 22/19 Q1002 NOSIG
Conditions at: OKBK (KUWAIT INTL (MIL, KW) observed 0700 UTC 25 March 2019
Temperature: 22.0°C (72°F)
Dewpoint: 19.0°C (66°F) [RH = 83%]
Pressure (altimeter): 29.59 inches Hg (1002.0 mb)
Winds: from the S (180 degrees) at 14 MPH (12 knots; 6.2 m/s)
Visibility: 1.24 miles (2.00 km)
Ceiling: 8000 feet AGL
Clouds: scattered clouds at 3000 feet AGL
scattered clouds at 4000 feet AGL
overcast cloud deck at 8000 feet AGL
Weather: TSRA  (rain associated with thunderstorm(s))

METAR text: OKBK 250600Z 18024KT 2500 -RA SCT040 OVC080 22/19 Q1002 NOSIG
Conditions at: OKBK (KUWAIT INTL (MIL, KW) observed 0600 UTC 25 March 2019
Temperature: 22.0°C (72°F)
Dewpoint: 19.0°C (66°F) [RH = 83%]
Pressure (altimeter): 29.59 inches Hg (1002.0 mb)
Winds: from the S (180 degrees) at 28 MPH (24 knots; 12.3 m/s)
Visibility: 1.55 miles (2.49 km)
Ceiling: 8000 feet AGL
Clouds: scattered clouds at 4000 feet AGL
overcast cloud deck at 8000 feet AGL
Weather: -RA  (light rain)

METAR text: OKBK 250500Z 17022KT 2000 +BLDU SCT040 BKN080 22/18 Q1001 NOSIG
Conditions at: OKBK (KUWAIT INTL (MIL, KW) observed 0500 UTC 25 March 2019
Temperature: 22.0°C (72°F)
Dewpoint: 18.0°C (64°F) [RH = 78%]
Pressure (altimeter): 29.56 inches Hg (1001.0 mb)
Winds: from the S (170 degrees) at 25 MPH (22 knots; 11.3 m/s)
Visibility: 1.24 miles (2.00 km)
Ceiling: 8000 feet AGL
Clouds: scattered clouds at 4000 feet AGL
broken clouds at 8000 feet AGL
Weather: +BLDU  (unknown weather)

METAR text: OKBK 250400Z 18020KT 1800 +BLDU SCT040 BKN080 22/18 Q1002 NOSIG
Conditions at: OKBK (KUWAIT INTL (MIL, KW) observed 0400 UTC 25 March 2019
Temperature: 22.0°C (72°F)
Dewpoint: 18.0°C (64°F) [RH = 78%]
Pressure (altimeter): 29.59 inches Hg (1002.0 mb)
Winds: from the S (180 degrees) at 23 MPH (20 knots; 10.3 m/s)
Visibility: 1.12 miles (1.80 km)
Ceiling: 8000 feet AGL
Clouds: scattered clouds at 4000 feet AGL
broken clouds at 8000 feet AGL
Weather: +BLDU  (unknown weather)

METAR text: OKBK 250300Z 16024KT 1800 +BLDU SCT040 BKN080 22/18 Q1000 NOSIG
Conditions at: OKBK (KUWAIT INTL (MIL, KW) observed 0300 UTC 25 March 2019
Temperature: 22.0°C (72°F)
Dewpoint: 18.0°C (64°F) [RH = 78%]
Pressure (altimeter): 29.53 inches Hg (1000.0 mb)
Winds: from the SSE (160 degrees) at 28 MPH (24 knots; 12.3 m/s)
Visibility: 1.12 miles (1.80 km)
Ceiling: 8000 feet AGL
Clouds: scattered clouds at 4000 feet AGL
broken clouds at 8000 feet AGL
Weather: +BLDU  (unknown weather)

METAR text: OKBK 250200Z 17023KT 1800 +BLDU SCT040 BKN080 22/17 Q1000 NOSIG
Conditions at: OKBK (KUWAIT INTL (MIL, KW) observed 0200 UTC 25 March 2019
Temperature: 22.0°C (72°F)
Dewpoint: 17.0°C (63°F) [RH = 73%]
Pressure (altimeter): 29.53 inches Hg (1000.0 mb)
Winds: from the S (170 degrees) at 26 MPH (23 knots; 11.8 m/s)
Visibility: 1.12 miles (1.80 km)
Ceiling: 8000 feet AGL
Clouds: scattered clouds at 4000 feet AGL
broken clouds at 8000 feet AGL
Weather: +BLDU  (unknown weather)

METAR text: OKBK 250100Z 17026KT 2200 +BLDU SCT040 BKN080 22/18 Q0999 NOSIG
Conditions at: OKBK (KUWAIT INTL (MIL, KW) observed 0100 UTC 25 March 2019
Temperature: 22.0°C (72°F)
Dewpoint: 18.0°C (64°F) [RH = 78%]
Pressure (altimeter): 29.50 inches Hg (999.0 mb)
Winds: from the S (170 degrees) at 30 MPH (26 knots; 13.4 m/s)
Visibility: 1.37 miles (2.20 km)
Ceiling: 8000 feet AGL
Clouds: scattered clouds at 4000 feet AGL
broken clouds at 8000 feet AGL
Weather: +BLDU  (unknown weather)

METAR text: OKBK 250000Z 15025KT 4500 BLDU SCT040 BKN080 22/18 Q0999 NOSIG
Conditions at: OKBK (KUWAIT INTL (MIL, KW) observed 0000 UTC 25 March 2019
Temperature: 22.0°C (72°F)
Dewpoint: 18.0°C (64°F) [RH = 78%]
Pressure (altimeter): 29.50 inches Hg (999.0 mb)
Winds: from the SSE (150 degrees) at 29 MPH (25 knots; 12.9 m/s)
Visibility: 2.80 miles (4.51 km)
Ceiling: 8000 feet AGL
Clouds: scattered clouds at 4000 feet AGL
broken clouds at 8000 feet AGL
Weather: BLDU  (blowing dust)

METAR text: OKBK 242300Z 14025KT 4500 BLDU SCT040 BKN080 22/18 Q0999 NOSIG
Conditions at: OKBK (KUWAIT INTL (MIL, KW) observed 2300 UTC 24 March 2019
Temperature: 22.0°C (72°F)
Dewpoint: 18.0°C (64°F) [RH = 78%]
Pressure (altimeter): 29.50 inches Hg (999.0 mb)
Winds: from the SE (140 degrees) at 29 MPH (25 knots; 12.9 m/s)
Visibility: 2.80 miles (4.51 km)
Ceiling: 8000 feet AGL
Clouds: scattered clouds at 4000 feet AGL
broken clouds at 8000 feet AGL
Weather: BLDU  (blowing dust)

METAR text: OKBK 242200Z 13020KT 6000 -BLDU SCT040 BKN080 23/18 Q0999 NOSIG
Conditions at: OKBK (KUWAIT INTL (MIL, KW) observed 2200 UTC 24 March 2019
Temperature: 23.0°C (73°F)
Dewpoint: 18.0°C (64°F) [RH = 73%]
Pressure (altimeter): 29.50 inches Hg (999.0 mb)
Winds: from the SE (130 degrees) at 23 MPH (20 knots; 10.3 m/s)
Visibility: 4 miles ( 6 km)
Ceiling: 8000 feet AGL
Clouds: scattered clouds at 4000 feet AGL
broken clouds at 8000 feet AGL
Weather: -BLDU  (unknown weather)

METAR text: OKBK 242100Z 15018KT 6000 -BLDU SCT040 BKN080 22/18 Q1001 NOSIG
Conditions at: OKBK (KUWAIT INTL (MIL, KW) observed 2100 UTC 24 March 2019
Temperature: 22.0°C (72°F)
Dewpoint: 18.0°C (64°F) [RH = 78%]
Pressure (altimeter): 29.56 inches Hg (1001.0 mb)
Winds: from the SSE (150 degrees) at 21 MPH (18 knots; 9.3 m/s)
Visibility: 4 miles ( 6 km)
Ceiling: 8000 feet AGL
Clouds: scattered clouds at 4000 feet AGL
broken clouds at 8000 feet AGL
Weather: -BLDU  (unknown weather)

METAR text: OKBK 242000Z 14023KT 6000 SCT040 BKN080 22/19 Q1001 NOSIG
Conditions at: OKBK (KUWAIT INTL (MIL, KW) observed 2000 UTC 24 March 2019
Temperature: 22.0°C (72°F)
Dewpoint: 19.0°C (66°F) [RH = 83%]
Pressure (altimeter): 29.56 inches Hg (1001.0 mb)
Winds: from the SE (140 degrees) at 26 MPH (23 knots; 11.8 m/s)
Visibility: 4 miles ( 6 km)
Ceiling: 8000 feet AGL
Clouds: scattered clouds at 4000 feet AGL
broken clouds at 8000 feet AGL
Weather: no significant weather observed at this time

METAR text: OKBK 241900Z 15016KT 8000 FEW040 BKN080 22/18 Q1002 NOSIG
Conditions at: OKBK (KUWAIT INTL (MIL, KW) observed 1900 UTC 24 March 2019
Temperature: 22.0°C (72°F)
Dewpoint: 18.0°C (64°F) [RH = 78%]
Pressure (altimeter): 29.59 inches Hg (1002.0 mb)
Winds: from the SSE (150 degrees) at 18 MPH (16 knots; 8.2 m/s)
Visibility: 5 miles ( 8 km)
Ceiling: 8000 feet AGL
Clouds: few clouds at 4000 feet AGL
broken clouds at 8000 feet AGL
Weather: no significant weather observed at this time

METAR text: OKBK 241800Z 13017KT 8000 FEW040 BKN080 21/18 Q1002 NOSIG
Conditions at: OKBK (KUWAIT INTL (MIL, KW) observed 1800 UTC 24 March 2019
Temperature: 21.0°C (70°F)
Dewpoint: 18.0°C (64°F) [RH = 83%]
Pressure (altimeter): 29.59 inches Hg (1002.0 mb)
Winds: from the SE (130 degrees) at 20 MPH (17 knots; 8.7 m/s)
Visibility: 5 miles ( 8 km)
Ceiling: 8000 feet AGL
Clouds: few clouds at 4000 feet AGL
broken clouds at 8000 feet AGL
Weather: no significant weather observed at this time

METAR text: OKBK 241700Z 13016KT 8000 FEW040 BKN080 21/18 Q1002 NOSIG
Conditions at: OKBK (KUWAIT INTL (MIL, KW) observed 1700 UTC 24 March 2019
Temperature: 21.0°C (70°F)
Dewpoint: 18.0°C (64°F) [RH = 83%]
Pressure (altimeter): 29.59 inches Hg (1002.0 mb)
Winds: from the SE (130 degrees) at 18 MPH (16 knots; 8.2 m/s)
Visibility: 5 miles ( 8 km)
Ceiling: 8000 feet AGL
Clouds: few clouds at 4000 feet AGL
broken clouds at 8000 feet AGL
Weather: no significant weather observed at this time

METAR text: OKBK 241600Z 13015KT 8000 FEW040 BKN080 21/18 Q1003 NOSIG
Conditions at: OKBK (KUWAIT INTL (MIL, KW) observed 1600 UTC 24 March 2019
Temperature: 21.0°C (70°F)
Dewpoint: 18.0°C (64°F) [RH = 83%]
Pressure (altimeter): 29.62 inches Hg (1003.0 mb)
Winds: from the SE (130 degrees) at 17 MPH (15 knots; 7.7 m/s)
Visibility: 5 miles ( 8 km)
Ceiling: 8000 feet AGL
Clouds: few clouds at 4000 feet AGL
broken clouds at 8000 feet AGL
Weather: no significant weather observed at this time

METAR text: OKBK 241500Z 12012KT 7000 SCT040 BKN080 22/18 Q1004 NOSIG
Conditions at: OKBK (KUWAIT INTL (MIL, KW) observed 1500 UTC 24 March 2019
Temperature: 22.0°C (72°F)
Dewpoint: 18.0°C (64°F) [RH = 78%]
Pressure (altimeter): 29.65 inches Hg (1004.0 mb)
Winds: from the ESE (120 degrees) at 14 MPH (12 knots; 6.2 m/s)
Visibility: 4 miles ( 7 km)
Ceiling: 8000 feet AGL
Clouds: scattered clouds at 4000 feet AGL
broken clouds at 8000 feet AGL
Weather: no significant weather observed at this time

METAR text: OKBK 241400Z 13014KT 7000 SCT040 OVC080 22/17 Q1003 NOSIG
Conditions at: OKBK (KUWAIT INTL (MIL, KW) observed 1400 UTC 24 March 2019
Temperature: 22.0°C (72°F)
Dewpoint: 17.0°C (63°F) [RH = 73%]
Pressure (altimeter): 29.62 inches Hg (1003.0 mb)
Winds: from the SE (130 degrees) at 16 MPH (14 knots; 7.2 m/s)
Visibility: 4 miles ( 7 km)
Ceiling: 8000 feet AGL
Clouds: scattered clouds at 4000 feet AGL
overcast cloud deck at 8000 feet AGL
Weather: no significant weather observed at this time

METAR text: OKBK 241300Z 12017KT 7000 -BLDU FEW040 SCT080 BKN200 23/15 Q1004 NOSIG
Conditions at: OKBK (KUWAIT INTL (MIL, KW) observed 1300 UTC 24 March 2019
Temperature: 23.0°C (73°F)
Dewpoint: 15.0°C (59°F) [RH = 61%]
Pressure (altimeter): 29.65 inches Hg (1004.0 mb)
Winds: from the ESE (120 degrees) at 20 MPH (17 knots; 8.7 m/s)
Visibility: 4 miles ( 7 km)
Ceiling: 20000 feet AGL
Clouds: few clouds at 4000 feet AGL
scattered clouds at 8000 feet AGL
broken clouds at 20000 feet AGL
Weather: -BLDU  (unknown weather)

METAR text: OKBK 241259Z 12017KT 7000 -BLDU FEW040 SCT080 BKN200 23/15 Q1004 NOSIG
Conditions at: OKBK (KUWAIT INTL (MIL, KW) observed 1259 UTC 24 March 2019
Temperature: 23.0°C (73°F)
Dewpoint: 15.0°C (59°F) [RH = 61%]
Pressure (altimeter): 29.65 inches Hg (1004.0 mb)
Winds: from the ESE (120 degrees) at 20 MPH (17 knots; 8.7 m/s)
Visibility: 4 miles ( 7 km)
Ceiling: 20000 feet AGL
Clouds: few clouds at 4000 feet AGL
scattered clouds at 8000 feet AGL
broken clouds at 20000 feet AGL
Weather: -BLDU  (unknown weather)

METAR text: OKBK 241200Z 12020KT 6000 -BLDU NSC 24/15 Q1004 NOSIG
Conditions at: OKBK (KUWAIT INTL (MIL, KW) observed 1200 UTC 24 March 2019
Temperature: 24.0°C (75°F)
Dewpoint: 15.0°C (59°F) [RH = 57%]
Pressure (altimeter): 29.65 inches Hg (1004.0 mb)
Winds: from the ESE (120 degrees) at 23 MPH (20 knots; 10.3 m/s)
Visibility: 4 miles ( 6 km)
Ceiling: at least 12,000 feet AGL
Clouds: sky clear below 12,000 feet AGL
Weather: -BLDU  (unknown weather)

METAR text: OKBK 241100Z 13021KT 5000 BLDU NSC 25/15 Q1004 NOSIG
Conditions at: OKBK (KUWAIT INTL (MIL, KW) observed 1100 UTC 24 March 2019
Temperature: 25.0°C (77°F)
Dewpoint: 15.0°C (59°F) [RH = 54%]
Pressure (altimeter): 29.65 inches Hg (1004.0 mb)
Winds: from the SE (130 degrees) at 24 MPH (21 knots; 10.8 m/s)
Visibility: 3 miles ( 5 km)
Ceiling: at least 12,000 feet AGL
Clouds: sky clear below 12,000 feet AGL
Weather: BLDU  (blowing dust)

METAR text: OKBK 241000Z 13021KT 5000 BLDU NSC 25/13 Q1006 NOSIG
Conditions at: OKBK (KUWAIT INTL (MIL, KW) observed 1000 UTC 24 March 2019
Temperature: 25.0°C (77°F)
Dewpoint: 13.0°C (55°F) [RH = 47%]
Pressure (altimeter): 29.70 inches Hg (1006.0 mb)
Winds: from the SE (130 degrees) at 24 MPH (21 knots; 10.8 m/s)
Visibility: 3 miles ( 5 km)
Ceiling: at least 12,000 feet AGL
Clouds: sky clear below 12,000 feet AGL
Weather: BLDU  (blowing dust)

METAR text: OKBK 240900Z 13023KT 5000 BLDU NSC 25/13 Q1007 NOSIG
Conditions at: OKBK (KUWAIT INTL (MIL, KW) observed 0900 UTC 24 March 2019
Temperature: 25.0°C (77°F)
Dewpoint: 13.0°C (55°F) [RH = 47%]
Pressure (altimeter): 29.73 inches Hg (1007.0 mb)
Winds: from the SE (130 degrees) at 26 MPH (23 knots; 11.8 m/s)
Visibility: 3 miles ( 5 km)
Ceiling: at least 12,000 feet AGL
Clouds: sky clear below 12,000 feet AGL
Weather: BLDU  (blowing dust)

METAR text: OKBK 240800Z 14019KT 6000 -BLDU NSC 26/15 Q1007 NOSIG
Conditions at: OKBK (KUWAIT INTL (MIL, KW) observed 0800 UTC 24 March 2019
Temperature: 26.0°C (79°F)
Dewpoint: 15.0°C (59°F) [RH = 51%]
Pressure (altimeter): 29.73 inches Hg (1007.0 mb)
Winds: from the SE (140 degrees) at 22 MPH (19 knots; 9.8 m/s)
Visibility: 4 miles ( 6 km)
Ceiling: at least 12,000 feet AGL
Clouds: sky clear below 12,000 feet AGL
Weather: -BLDU  (unknown weather)

METAR text: OKBK 240700Z 16020KT 6000 -BLDU NSC 26/15 Q1009 NOSIG
Conditions at: OKBK (KUWAIT INTL (MIL, KW) observed 0700 UTC 24 March 2019
Temperature: 26.0°C (79°F)
Dewpoint: 15.0°C (59°F) [RH = 51%]
Pressure (altimeter): 29.79 inches Hg (1009.0 mb)
Winds: from the SSE (160 degrees) at 23 MPH (20 knots; 10.3 m/s)
Visibility: 4 miles ( 6 km)
Ceiling: at least 12,000 feet AGL
Clouds: sky clear below 12,000 feet AGL
Weather: -BLDU  (unknown weather)

Forecast for: OKBK (KUWAIT INTL (MIL, KW)
Text: TAF OKBK 251645Z 2518/2624 14015G30KT 6000 SCT040 OVC080
Forecast period: 1800 UTC 25 March 2019 to 0500 UTC 26 March 2019
Forecast type: FROM: standard forecast or significant change
Winds: from the SE (140 degrees) at 17 MPH (15 knots; 7.7 m/s)
gusting to 34 MPH (30 knots; 15.4 m/s)
Visibility: 4 miles (6 km)
Ceiling: 8000 feet AGL
Clouds: scattered clouds at 4000 feet AGL
overcast cloud deck at 8000 feet AGL
Weather: no significant weather forecast for this period
Text: TEMPO 2518/2606 1000 TSRA/BLDU FEW025CB
Forecast period: 1800 UTC 25 March 2019 to 0600 UTC 26 March 2019
Forecast type: TEMPORARY: The following changes expected for less than half the time period
Visibility: 0.62 miles (1.00 km)
Ceiling: at least 12,000 feet AGL
Clouds: few clouds at 2500 feet AGL
Weather: BLDU TSRA  (blowing dust, rain associated with thunderstorm(s))
Text: BECMG 2605/2607 30015G25KT 6000
Forecast period: 0500 UTC 26 March 2019 to 0000 UTC 27 March 2019
Forecast type: BECOMING: Conditions expected to become as follows by 0700 UTC 26 March 2019
Winds: from the WNW (300 degrees) at 17 MPH (15 knots; 7.7 m/s)
gusting to 29 MPH (25 knots; 12.9 m/s)
Visibility: 4 miles (6 km)
Ceiling: 8000 feet AGL
Clouds: scattered clouds at 4000 feet AGL
overcast cloud deck at 8000 feet AGL
Weather: no significant weather forecast for this period
Text: TEMPO 2606/2610 1500 BLDU
Forecast period: 0600 to 1000 UTC 26 March 2019
Forecast type: TEMPORARY: The following changes expected for less than half the time period
Visibility: 0.93 miles (1.50 km)
Ceiling: unknown
Clouds: missing
Weather: BLDU  (blowing dust)